Burton, Michigan
Current Conditions -  °F | °C
As of 2:53 PM on Sunday 21 Dec 2014 (Local Time) from KFNT Reporting Station
Overcast Overcast  
Wind Chill: 29°   Ceiling: 5500
Heat Index: 35°   Visibility: 10mi
Dew Point: 24°   Wind: 8mph
Humidity: 64%   Direction: 180°S
Pressure: 30.21"   Gusts: NA
Location:  42.97°N, 83.63°W
Report Text: KFNT 211953Z 18007KT 10SM OVC055 02/M04 A3021 RMK AO2 SLP241 T00171044
Loading
Personal Weather Stations






























Interactive Weather Map New forecast layout! Learn more

10-Day Weather Forecast

Advertisements
Track Severe Weather on mobile